DTO weather

Denton Municipal Airport
Denton, Texas, United States

Public forecast

Using degrees Fahrenheit for public forecast. Weather courtesy of forecast.io.

Current aviation weather report (METAR) for Denton Municipal Airport

Retrieved 2020/02/24 03:53 UTC (19 minutes ago):

KDTO 240353Z 19015KT 8SM OVC006 15/14 A2984 RMK AO2 SLP100 T01500139

Closest aviation forecast (TAF) to Denton Municipal Airport

Closest forecast is Fort Worth Alliance Airport, 14.2 nm (26.2 km) SSW. Retrieved 2020-02-24 03:06 UTC (1 hour ago):

TAF KAFW 240304Z 2403/2424 20015KT P6SM VCSH BKN005 FM240700 20015KT P6SM VCSH BKN015 FM240800 21014KT P6SM VCSH SCT100 FM240900 21013KT P6SM FEW250 FM241800 29018G28KT P6SM BKN090 FM242300 32010KT P6SM FEW250